sensor_id;sensor_type;location;lat;lon;timestamp;P1;durP1;ratioP1;P2;durP2;ratioP2
79066;SDS011;68470;50.224;14.348;2023-04-25T00:00:01;7.65;;;3.03;;
79066;SDS011;68470;50.224;14.348;2023-04-25T00:02:52;7.32;;;3.03;;
79066;SDS011;68470;50.224;14.348;2023-04-25T00:05:22;5.50;;;2.90;;
79066;SDS011;68470;50.224;14.348;2023-04-25T00:07:49;6.45;;;2.80;;
79066;SDS011;68470;50.224;14.348;2023-04-25T00:10:15;4.85;;;3.10;;
79066;SDS011;68470;50.224;14.348;2023-04-25T00:12:41;4.95;;;2.38;;
79066;SDS011;68470;50.224;14.348;2023-04-25T00:15:07;4.32;;;2.22;;
79066;SDS011;68470;50.224;14.348;2023-04-25T00:17:34;7.22;;;2.53;;
79066;SDS011;68470;50.224;14.348;2023-04-25T00:20:01;4.25;;;2.60;;
79066;SDS011;68470;50.224;14.348;2023-04-25T00:22:30;5.07;;;3.03;;
79066;SDS011;68470;50.224;14.348;2023-04-25T00:24:56;5.93;;;2.95;;
79066;SDS011;68470;50.224;14.348;2023-04-25T00:27:25;5.03;;;3.10;;
79066;SDS011;68470;50.224;14.348;2023-04-25T00:29:52;5.07;;;2.70;;
79066;SDS011;68470;50.224;14.348;2023-04-25T00:32:18;4.63;;;2.33;;
79066;SDS011;68470;50.224;14.348;2023-04-25T00:34:44;6.22;;;3.28;;
79066;SDS011;68470;50.224;14.348;2023-04-25T00:37:10;5.18;;;2.63;;
79066;SDS011;68470;50.224;14.348;2023-04-25T00:39:36;5.50;;;2.47;;
79066;SDS011;68470;50.224;14.348;2023-04-25T00:42:02;4.63;;;2.92;;
79066;SDS011;68470;50.224;14.348;2023-04-25T00:44:31;5.78;;;2.92;;
79066;SDS011;68470;50.224;14.348;2023-04-25T00:46:59;5.57;;;3.03;;
79066;SDS011;68470;50.224;14.348;2023-04-25T00:49:27;6.47;;;2.60;;
79066;SDS011;68470;50.224;14.348;2023-04-25T00:51:53;5.30;;;2.75;;
79066;SDS011;68470;50.224;14.348;2023-04-25T00:54:20;4.25;;;2.38;;
79066;SDS011;68470;50.224;14.348;2023-04-25T00:56:46;5.32;;;3.05;;
79066;SDS011;68470;50.224;14.348;2023-04-25T00:59:12;6.30;;;3.53;;
79066;SDS011;68470;50.224;14.348;2023-04-25T01:01:38;5.25;;;2.88;;
79066;SDS011;68470;50.224;14.348;2023-04-25T01:04:07;5.25;;;3.17;;
79066;SDS011;68470;50.224;14.348;2023-04-25T01:06:34;5.93;;;3.42;;
79066;SDS011;68470;50.224;14.348;2023-04-25T01:09:02;5.80;;;3.58;;
79066;SDS011;68470;50.224;14.348;2023-04-25T01:11:28;6.28;;;3.03;;
79066;SDS011;68470;50.224;14.348;2023-04-25T01:13:54;6.03;;;3.65;;
79066;SDS011;68470;50.224;14.348;2023-04-25T01:16:19;5.15;;;2.75;;
79066;SDS011;68470;50.224;14.348;2023-04-25T01:18:50;5.10;;;3.00;;
79066;SDS011;68470;50.224;14.348;2023-04-25T01:21:16;6.97;;;3.72;;
79066;SDS011;68470;50.224;14.348;2023-04-25T01:23:43;5.05;;;2.80;;
79066;SDS011;68470;50.224;14.348;2023-04-25T01:26:09;6.05;;;3.40;;
79066;SDS011;68470;50.224;14.348;2023-04-25T01:28:38;4.63;;;2.75;;
79066;SDS011;68470;50.224;14.348;2023-04-25T01:31:08;6.30;;;3.72;;
79066;SDS011;68470;50.224;14.348;2023-04-25T01:33:35;4.57;;;2.75;;
79066;SDS011;68470;50.224;14.348;2023-04-25T01:36:00;6.90;;;2.97;;
79066;SDS011;68470;50.224;14.348;2023-04-25T01:38:27;6.32;;;2.72;;
79066;SDS011;68470;50.224;14.348;2023-04-25T01:40:53;6.95;;;3.30;;
79066;SDS011;68470;50.224;14.348;2023-04-25T01:43:20;5.30;;;2.72;;
79066;SDS011;68470;50.224;14.348;2023-04-25T01:45:46;4.88;;;2.85;;
79066;SDS011;68470;50.224;14.348;2023-04-25T01:48:14;6.47;;;3.00;;
79066;SDS011;68470;50.224;14.348;2023-04-25T01:50:40;4.68;;;2.88;;
79066;SDS011;68470;50.224;14.348;2023-04-25T01:53:07;5.43;;;2.95;;
79066;SDS011;68470;50.224;14.348;2023-04-25T01:55:35;6.72;;;3.00;;
79066;SDS011;68470;50.224;14.348;2023-04-25T01:58:04;6.70;;;3.95;;
79066;SDS011;68470;50.224;14.348;2023-04-25T02:00:37;7.25;;;3.55;;
79066;SDS011;68470;50.224;14.348;2023-04-25T02:03:07;8.18;;;3.45;;
79066;SDS011;68470;50.224;14.348;2023-04-25T02:05:34;9.77;;;3.53;;
79066;SDS011;68470;50.224;14.348;2023-04-25T02:08:01;6.25;;;3.10;;
79066;SDS011;68470;50.224;14.348;2023-04-25T02:10:27;6.60;;;3.53;;
79066;SDS011;68470;50.224;14.348;2023-04-25T02:12:54;7.82;;;3.55;;
79066;SDS011;68470;50.224;14.348;2023-04-25T02:15:19;8.43;;;3.33;;
79066;SDS011;68470;50.224;14.348;2023-04-25T02:17:46;6.07;;;3.35;;
79066;SDS011;68470;50.224;14.348;2023-04-25T02:20:12;8.30;;;4.50;;
79066;SDS011;68470;50.224;14.348;2023-04-25T02:22:38;7.10;;;3.67;;
79066;SDS011;68470;50.224;14.348;2023-04-25T02:25:04;12.88;;;6.55;;
79066;SDS011;68470;50.224;14.348;2023-04-25T02:27:33;6.70;;;3.65;;
79066;SDS011;68470;50.224;14.348;2023-04-25T02:29:59;8.00;;;4.68;;
79066;SDS011;68470;50.224;14.348;2023-04-25T02:32:25;6.10;;;3.55;;
79066;SDS011;68470;50.224;14.348;2023-04-25T02:34:52;8.98;;;4.18;;
79066;SDS011;68470;50.224;14.348;2023-04-25T02:37:19;9.20;;;4.95;;
79066;SDS011;68470;50.224;14.348;2023-04-25T02:39:44;7.82;;;4.43;;
79066;SDS011;68470;50.224;14.348;2023-04-25T02:42:10;7.15;;;4.03;;
79066;SDS011;68470;50.224;14.348;2023-04-25T02:44:36;6.90;;;3.83;;
79066;SDS011;68470;50.224;14.348;2023-04-25T02:47:02;5.80;;;3.35;;
79066;SDS011;68470;50.224;14.348;2023-04-25T02:49:30;9.00;;;3.72;;
79066;SDS011;68470;50.224;14.348;2023-04-25T02:51:56;7.75;;;4.03;;
79066;SDS011;68470;50.224;14.348;2023-04-25T02:54:26;10.68;;;4.28;;
79066;SDS011;68470;50.224;14.348;2023-04-25T02:56:53;9.23;;;5.00;;
79066;SDS011;68470;50.224;14.348;2023-04-25T02:59:18;6.93;;;3.90;;
79066;SDS011;68470;50.224;14.348;2023-04-25T03:01:45;6.50;;;3.30;;
79066;SDS011;68470;50.224;14.348;2023-04-25T03:04:10;7.55;;;3.88;;
79066;SDS011;68470;50.224;14.348;2023-04-25T03:06:37;9.13;;;3.67;;
79066;SDS011;68470;50.224;14.348;2023-04-25T03:09:05;6.53;;;3.33;;
79066;SDS011;68470;50.224;14.348;2023-04-25T03:11:31;8.63;;;4.22;;
79066;SDS011;68470;50.224;14.348;2023-04-25T03:13:57;11.48;;;4.07;;
79066;SDS011;68470;50.224;14.348;2023-04-25T03:16:23;7.53;;;3.58;;
79066;SDS011;68470;50.224;14.348;2023-04-25T03:18:50;6.03;;;3.55;;
79066;SDS011;68470;50.224;14.348;2023-04-25T03:21:16;8.75;;;3.70;;
79066;SDS011;68470;50.224;14.348;2023-04-25T03:23:42;8.07;;;3.60;;
79066;SDS011;68470;50.224;14.348;2023-04-25T03:26:08;7.13;;;3.85;;
79066;SDS011;68470;50.224;14.348;2023-04-25T03:28:35;7.22;;;3.50;;
79066;SDS011;68470;50.224;14.348;2023-04-25T03:31:01;6.85;;;3.53;;
79066;SDS011;68470;50.224;14.348;2023-04-25T03:33:26;7.07;;;4.25;;
79066;SDS011;68470;50.224;14.348;2023-04-25T03:35:53;6.35;;;4.20;;
79066;SDS011;68470;50.224;14.348;2023-04-25T03:38:18;9.13;;;5.50;;
79066;SDS011;68470;50.224;14.348;2023-04-25T03:40:45;7.60;;;4.00;;
79066;SDS011;68470;50.224;14.348;2023-04-25T03:43:13;5.97;;;3.10;;
79066;SDS011;68470;50.224;14.348;2023-04-25T03:45:39;6.35;;;3.88;;
79066;SDS011;68470;50.224;14.348;2023-04-25T03:48:08;5.75;;;3.10;;
79066;SDS011;68470;50.224;14.348;2023-04-25T03:50:34;6.40;;;3.78;;
79066;SDS011;68470;50.224;14.348;2023-04-25T03:53:00;5.63;;;2.70;;
79066;SDS011;68470;50.224;14.348;2023-04-25T03:55:27;6.80;;;4.28;;
79066;SDS011;68470;50.224;14.348;2023-04-25T03:57:53;8.32;;;4.53;;
79066;SDS011;68470;50.224;14.348;2023-04-25T04:00:19;9.63;;;5.00;;
79066;SDS011;68470;50.224;14.348;2023-04-25T04:02:45;7.78;;;3.90;;
79066;SDS011;68470;50.224;14.348;2023-04-25T04:05:12;10.98;;;4.90;;
79066;SDS011;68470;50.224;14.348;2023-04-25T04:07:38;3.78;;;1.83;;
79066;SDS011;68470;50.224;14.348;2023-04-25T04:10:06;25.20;;;8.18;;
79066;SDS011;68470;50.224;14.348;2023-04-25T04:12:32;25.35;;;7.30;;
79066;SDS011;68470;50.224;14.348;2023-04-25T04:14:59;19.45;;;6.80;;
79066;SDS011;68470;50.224;14.348;2023-04-25T04:17:25;20.83;;;6.82;;
79066;SDS011;68470;50.224;14.348;2023-04-25T04:19:51;21.75;;;5.97;;
79066;SDS011;68470;50.224;14.348;2023-04-25T04:22:17;25.75;;;8.02;;
79066;SDS011;68470;50.224;14.348;2023-04-25T04:24:43;47.13;;;12.13;;
79066;SDS011;68470;50.224;14.348;2023-04-25T04:27:11;41.42;;;11.32;;
79066;SDS011;68470;50.224;14.348;2023-04-25T04:29:38;33.90;;;9.00;;
79066;SDS011;68470;50.224;14.348;2023-04-25T04:32:04;49.75;;;12.20;;
79066;SDS011;68470;50.224;14.348;2023-04-25T04:34:30;26.23;;;8.63;;
79066;SDS011;68470;50.224;14.348;2023-04-25T04:36:56;37.88;;;10.93;;
79066;SDS011;68470;50.224;14.348;2023-04-25T04:39:23;48.10;;;13.05;;
79066;SDS011;68470;50.224;14.348;2023-04-25T04:41:49;32.55;;;10.70;;
79066;SDS011;68470;50.224;14.348;2023-04-25T04:44:16;39.22;;;9.63;;
79066;SDS011;68470;50.224;14.348;2023-04-25T04:46:42;38.13;;;10.77;;
79066;SDS011;68470;50.224;14.348;2023-04-25T04:49:10;44.10;;;11.48;;
79066;SDS011;68470;50.224;14.348;2023-04-25T04:51:37;55.63;;;14.15;;
79066;SDS011;68470;50.224;14.348;2023-04-25T04:54:03;58.75;;;16.83;;
79066;SDS011;68470;50.224;14.348;2023-04-25T04:56:30;58.50;;;16.60;;
79066;SDS011;68470;50.224;14.348;2023-04-25T04:58:57;32.65;;;10.90;;
79066;SDS011;68470;50.224;14.348;2023-04-25T05:01:27;32.80;;;10.70;;
79066;SDS011;68470;50.224;14.348;2023-04-25T05:03:55;32.30;;;12.25;;
79066;SDS011;68470;50.224;14.348;2023-04-25T05:06:25;20.83;;;8.23;;
79066;SDS011;68470;50.224;14.348;2023-04-25T05:08:52;20.60;;;8.13;;
79066;SDS011;68470;50.224;14.348;2023-04-25T05:11:18;19.20;;;7.10;;
79066;SDS011;68470;50.224;14.348;2023-04-25T05:13:45;16.75;;;7.63;;
79066;SDS011;68470;50.224;14.348;2023-04-25T05:16:15;19.25;;;10.18;;
79066;SDS011;68470;50.224;14.348;2023-04-25T05:18:47;15.88;;;7.25;;
79066;SDS011;68470;50.224;14.348;2023-04-25T05:21:13;16.83;;;8.02;;
79066;SDS011;68470;50.224;14.348;2023-04-25T05:23:39;14.68;;;7.55;;
79066;SDS011;68470;50.224;14.348;2023-04-25T05:26:05;15.43;;;6.95;;
79066;SDS011;68470;50.224;14.348;2023-04-25T05:28:31;10.95;;;5.47;;
79066;SDS011;68470;50.224;14.348;2023-04-25T05:30:57;13.13;;;5.45;;
79066;SDS011;68470;50.224;14.348;2023-04-25T05:33:23;10.63;;;4.65;;
79066;SDS011;68470;50.224;14.348;2023-04-25T05:35:49;10.93;;;5.28;;
79066;SDS011;68470;50.224;14.348;2023-04-25T05:38:15;12.52;;;4.97;;
79066;SDS011;68470;50.224;14.348;2023-04-25T05:40:42;10.02;;;4.90;;
79066;SDS011;68470;50.224;14.348;2023-04-25T05:43:07;8.40;;;4.47;;
79066;SDS011;68470;50.224;14.348;2023-04-25T05:45:34;12.77;;;4.93;;
79066;SDS011;68470;50.224;14.348;2023-04-25T05:48:00;12.32;;;5.32;;
79066;SDS011;68470;50.224;14.348;2023-04-25T05:50:26;9.52;;;5.40;;
79066;SDS011;68470;50.224;14.348;2023-04-25T05:52:52;9.43;;;5.15;;
79066;SDS011;68470;50.224;14.348;2023-04-25T05:55:18;10.23;;;4.90;;
79066;SDS011;68470;50.224;14.348;2023-04-25T05:57:44;9.02;;;4.13;;
79066;SDS011;68470;50.224;14.348;2023-04-25T06:00:11;7.60;;;5.03;;
79066;SDS011;68470;50.224;14.348;2023-04-25T06:02:38;9.07;;;5.10;;
79066;SDS011;68470;50.224;14.348;2023-04-25T06:05:04;12.52;;;5.35;;
79066;SDS011;68470;50.224;14.348;2023-04-25T06:07:30;9.18;;;4.55;;
79066;SDS011;68470;50.224;14.348;2023-04-25T06:09:56;8.57;;;4.88;;
79066;SDS011;68470;50.224;14.348;2023-04-25T06:12:22;7.35;;;4.13;;
79066;SDS011;68470;50.224;14.348;2023-04-25T06:14:48;6.80;;;4.28;;
79066;SDS011;68470;50.224;14.348;2023-04-25T06:17:15;7.00;;;4.55;;
79066;SDS011;68470;50.224;14.348;2023-04-25T06:19:41;7.53;;;4.20;;
79066;SDS011;68470;50.224;14.348;2023-04-25T06:22:07;7.88;;;4.47;;
79066;SDS011;68470;50.224;14.348;2023-04-25T06:24:33;8.63;;;4.95;;
79066;SDS011;68470;50.224;14.348;2023-04-25T06:26:59;7.88;;;5.15;;
79066;SDS011;68470;50.224;14.348;2023-04-25T06:29:25;8.73;;;5.32;;
79066;SDS011;68470;50.224;14.348;2023-04-25T06:31:51;10.75;;;4.82;;
79066;SDS011;68470;50.224;14.348;2023-04-25T06:34:17;7.60;;;4.47;;
79066;SDS011;68470;50.224;14.348;2023-04-25T06:36:43;8.05;;;4.10;;
79066;SDS011;68470;50.224;14.348;2023-04-25T06:39:10;9.18;;;6.60;;
79066;SDS011;68470;50.224;14.348;2023-04-25T06:41:36;7.78;;;4.90;;
79066;SDS011;68470;50.224;14.348;2023-04-25T06:44:02;6.75;;;4.38;;
79066;SDS011;68470;50.224;14.348;2023-04-25T06:46:28;7.80;;;3.95;;
79066;SDS011;68470;50.224;14.348;2023-04-25T06:48:54;7.53;;;4.00;;
79066;SDS011;68470;50.224;14.348;2023-04-25T06:51:20;10.43;;;4.90;;
79066;SDS011;68470;50.224;14.348;2023-04-25T06:53:46;10.07;;;5.10;;
79066;SDS011;68470;50.224;14.348;2023-04-25T06:56:12;8.77;;;4.82;;
79066;SDS011;68470;50.224;14.348;2023-04-25T06:58:38;7.72;;;4.30;;
79066;SDS011;68470;50.224;14.348;2023-04-25T07:01:04;5.85;;;3.42;;
79066;SDS011;68470;50.224;14.348;2023-04-25T07:03:30;9.38;;;4.45;;
79066;SDS011;68470;50.224;14.348;2023-04-25T07:05:55;7.88;;;4.18;;
79066;SDS011;68470;50.224;14.348;2023-04-25T07:08:21;8.55;;;4.22;;
79066;SDS011;68470;50.224;14.348;2023-04-25T07:10:47;7.82;;;3.83;;
79066;SDS011;68470;50.224;14.348;2023-04-25T07:13:13;8.25;;;3.88;;
79066;SDS011;68470;50.224;14.348;2023-04-25T07:15:39;7.75;;;4.00;;
79066;SDS011;68470;50.224;14.348;2023-04-25T07:18:05;9.15;;;6.18;;
79066;SDS011;68470;50.224;14.348;2023-04-25T07:20:31;7.22;;;3.85;;
79066;SDS011;68470;50.224;14.348;2023-04-25T07:22:58;6.30;;;4.05;;
79066;SDS011;68470;50.224;14.348;2023-04-25T07:25:25;9.68;;;4.43;;
79066;SDS011;68470;50.224;14.348;2023-04-25T07:27:52;8.38;;;4.57;;
79066;SDS011;68470;50.224;14.348;2023-04-25T07:32:48;6.15;;;4.22;;
79066;SDS011;68470;50.224;14.348;2023-04-25T07:35:17;8.80;;;4.53;;
79066;SDS011;68470;50.224;14.348;2023-04-25T07:37:43;8.25;;;5.38;;
79066;SDS011;68470;50.224;14.348;2023-04-25T07:40:09;8.88;;;4.72;;
79066;SDS011;68470;50.224;14.348;2023-04-25T07:42:43;7.55;;;4.10;;
79066;SDS011;68470;50.224;14.348;2023-04-25T07:45:21;7.60;;;4.55;;
79066;SDS011;68470;50.224;14.348;2023-04-25T07:48:10;7.72;;;4.70;;
79066;SDS011;68470;50.224;14.348;2023-04-25T07:50:35;10.32;;;4.45;;
79066;SDS011;68470;50.224;14.348;2023-04-25T07:53:02;10.48;;;5.32;;
79066;SDS011;68470;50.224;14.348;2023-04-25T07:55:33;10.20;;;5.40;;
79066;SDS011;68470;50.224;14.348;2023-04-25T07:58:35;8.40;;;4.97;;
79066;SDS011;68470;50.224;14.348;2023-04-25T08:03:32;8.48;;;4.45;;
79066;SDS011;68470;50.224;14.348;2023-04-25T08:08:24;8.25;;;3.72;;
79066;SDS011;68470;50.224;14.348;2023-04-25T08:10:51;7.65;;;4.70;;
79066;SDS011;68470;50.224;14.348;2023-04-25T08:13:17;7.75;;;4.03;;
79066;SDS011;68470;50.224;14.348;2023-04-25T08:15:44;8.38;;;4.53;;
79066;SDS011;68470;50.224;14.348;2023-04-25T08:18:11;8.13;;;4.72;;
79066;SDS011;68470;50.224;14.348;2023-04-25T08:20:38;8.35;;;4.20;;
79066;SDS011;68470;50.224;14.348;2023-04-25T08:23:05;6.53;;;4.00;;
79066;SDS011;68470;50.224;14.348;2023-04-25T08:25:31;7.22;;;3.42;;
79066;SDS011;68470;50.224;14.348;2023-04-25T08:28:16;7.57;;;4.38;;
79066;SDS011;68470;50.224;14.348;2023-04-25T08:30:42;9.07;;;4.30;;
79066;SDS011;68470;50.224;14.348;2023-04-25T08:33:07;6.85;;;3.90;;
79066;SDS011;68470;50.224;14.348;2023-04-25T08:35:35;7.13;;;4.07;;
79066;SDS011;68470;50.224;14.348;2023-04-25T08:38:01;5.78;;;3.63;;
79066;SDS011;68470;50.224;14.348;2023-04-25T08:40:27;5.88;;;4.30;;
79066;SDS011;68470;50.224;14.348;2023-04-25T08:42:56;5.97;;;3.72;;
79066;SDS011;68470;50.224;14.348;2023-04-25T08:45:24;5.10;;;3.30;;
79066;SDS011;68470;50.224;14.348;2023-04-25T08:47:52;6.90;;;3.50;;
79066;SDS011;68470;50.224;14.348;2023-04-25T08:50:19;5.97;;;4.35;;
79066;SDS011;68470;50.224;14.348;2023-04-25T08:52:51;6.28;;;4.15;;
79066;SDS011;68470;50.224;14.348;2023-04-25T08:55:20;6.15;;;4.32;;
79066;SDS011;68470;50.224;14.348;2023-04-25T08:57:46;8.73;;;4.75;;
79066;SDS011;68470;50.224;14.348;2023-04-25T09:00:13;7.47;;;4.53;;
79066;SDS011;68470;50.224;14.348;2023-04-25T09:02:39;6.53;;;4.50;;
79066;SDS011;68470;50.224;14.348;2023-04-25T09:05:12;8.68;;;5.40;;
79066;SDS011;68470;50.224;14.348;2023-04-25T09:07:39;5.43;;;4.00;;
79066;SDS011;68470;50.224;14.348;2023-04-25T09:10:05;6.03;;;3.92;;
79066;SDS011;68470;50.224;14.348;2023-04-25T09:12:31;6.22;;;3.92;;
79066;SDS011;68470;50.224;14.348;2023-04-25T09:15:02;7.18;;;4.03;;
79066;SDS011;68470;50.224;14.348;2023-04-25T09:17:29;6.78;;;2.97;;
79066;SDS011;68470;50.224;14.348;2023-04-25T09:19:55;6.68;;;4.53;;
79066;SDS011;68470;50.224;14.348;2023-04-25T09:22:30;6.53;;;4.00;;
79066;SDS011;68470;50.224;14.348;2023-04-25T09:24:57;6.28;;;3.45;;
79066;SDS011;68470;50.224;14.348;2023-04-25T09:27:27;4.97;;;3.17;;
79066;SDS011;68470;50.224;14.348;2023-04-25T09:29:57;7.65;;;3.90;;
79066;SDS011;68470;50.224;14.348;2023-04-25T09:32:26;5.47;;;3.10;;
79066;SDS011;68470;50.224;14.348;2023-04-25T09:34:54;7.43;;;3.28;;
79066;SDS011;68470;50.224;14.348;2023-04-25T09:37:28;7.15;;;3.80;;
79066;SDS011;68470;50.224;14.348;2023-04-25T09:39:56;7.90;;;4.78;;
79066;SDS011;68470;50.224;14.348;2023-04-25T09:42:30;9.23;;;5.68;;
79066;SDS011;68470;50.224;14.348;2023-04-25T09:44:57;8.38;;;5.10;;
79066;SDS011;68470;50.224;14.348;2023-04-25T09:47:24;8.85;;;5.57;;
79066;SDS011;68470;50.224;14.348;2023-04-25T09:49:52;10.88;;;7.63;;
79066;SDS011;68470;50.224;14.348;2023-04-25T09:52:19;8.93;;;5.15;;
79066;SDS011;68470;50.224;14.348;2023-04-25T09:54:49;12.52;;;7.32;;
79066;SDS011;68470;50.224;14.348;2023-04-25T09:57:16;11.65;;;5.80;;
79066;SDS011;68470;50.224;14.348;2023-04-25T09:59:47;6.00;;;3.45;;
79066;SDS011;68470;50.224;14.348;2023-04-25T10:02:15;9.55;;;5.35;;
79066;SDS011;68470;50.224;14.348;2023-04-25T10:04:49;8.02;;;4.75;;
79066;SDS011;68470;50.224;14.348;2023-04-25T10:07:18;8.80;;;4.72;;
79066;SDS011;68470;50.224;14.348;2023-04-25T10:12:13;9.82;;;5.32;;
79066;SDS011;68470;50.224;14.348;2023-04-25T10:14:40;9.45;;;5.38;;
79066;SDS011;68470;50.224;14.348;2023-04-25T10:17:06;10.20;;;5.55;;
79066;SDS011;68470;50.224;14.348;2023-04-25T10:19:34;9.50;;;4.40;;
79066;SDS011;68470;50.224;14.348;2023-04-25T10:22:04;9.75;;;5.07;;
79066;SDS011;68470;50.224;14.348;2023-04-25T10:24:31;10.25;;;5.43;;
79066;SDS011;68470;50.224;14.348;2023-04-25T10:26:57;10.07;;;5.72;;
79066;SDS011;68470;50.224;14.348;2023-04-25T10:29:24;7.60;;;4.55;;
79066;SDS011;68470;50.224;14.348;2023-04-25T10:31:51;9.80;;;5.80;;
79066;SDS011;68470;50.224;14.348;2023-04-25T10:34:17;7.47;;;4.25;;
79066;SDS011;68470;50.224;14.348;2023-04-25T10:36:49;7.13;;;4.00;;
79066;SDS011;68470;50.224;14.348;2023-04-25T10:39:24;7.10;;;4.07;;
79066;SDS011;68470;50.224;14.348;2023-04-25T10:41:58;8.30;;;4.90;;
79066;SDS011;68470;50.224;14.348;2023-04-25T10:44:28;7.25;;;4.60;;
79066;SDS011;68470;50.224;14.348;2023-04-25T10:46:55;9.77;;;5.13;;
79066;SDS011;68470;50.224;14.348;2023-04-25T10:49:29;6.53;;;3.95;;
79066;SDS011;68470;50.224;14.348;2023-04-25T10:52:10;6.13;;;3.88;;
79066;SDS011;68470;50.224;14.348;2023-04-25T10:54:47;6.78;;;4.25;;
79066;SDS011;68470;50.224;14.348;2023-04-25T10:57:27;5.60;;;3.92;;
79066;SDS011;68470;50.224;14.348;2023-04-25T11:00:00;5.63;;;4.15;;
79066;SDS011;68470;50.224;14.348;2023-04-25T11:02:30;9.10;;;5.45;;
79066;SDS011;68470;50.224;14.348;2023-04-25T11:04:57;9.57;;;5.78;;
79066;SDS011;68470;50.224;14.348;2023-04-25T11:07:25;10.55;;;5.70;;
79066;SDS011;68470;50.224;14.348;2023-04-25T11:10:05;9.35;;;6.47;;
79066;SDS011;68470;50.224;14.348;2023-04-25T11:12:31;5.95;;;3.38;;
79066;SDS011;68470;50.224;14.348;2023-04-25T11:15:04;6.22;;;3.42;;
79066;SDS011;68470;50.224;14.348;2023-04-25T11:17:31;3.95;;;2.30;;
79066;SDS011;68470;50.224;14.348;2023-04-25T11:19:58;5.82;;;3.63;;
79066;SDS011;68470;50.224;14.348;2023-04-25T11:22:24;5.80;;;3.30;;
79066;SDS011;68470;50.224;14.348;2023-04-25T11:24:52;5.07;;;3.13;;
79066;SDS011;68470;50.224;14.348;2023-04-25T11:27:18;4.38;;;2.28;;
79066;SDS011;68470;50.224;14.348;2023-04-25T11:29:44;6.43;;;3.10;;
79066;SDS011;68470;50.224;14.348;2023-04-25T11:32:14;9.15;;;3.60;;
79066;SDS011;68470;50.224;14.348;2023-04-25T11:34:42;6.13;;;3.55;;
79066;SDS011;68470;50.224;14.348;2023-04-25T11:37:09;6.55;;;4.85;;
79066;SDS011;68470;50.224;14.348;2023-04-25T11:39:38;6.80;;;3.70;;
79066;SDS011;68470;50.224;14.348;2023-04-25T11:42:04;6.57;;;2.95;;
79066;SDS011;68470;50.224;14.348;2023-04-25T11:44:31;5.57;;;3.67;;
79066;SDS011;68470;50.224;14.348;2023-04-25T11:46:59;5.90;;;3.67;;
79066;SDS011;68470;50.224;14.348;2023-04-25T11:49:29;4.60;;;3.65;;
79066;SDS011;68470;50.224;14.348;2023-04-25T11:51:56;6.25;;;3.72;;
79066;SDS011;68470;50.224;14.348;2023-04-25T11:54:22;3.63;;;2.58;;
79066;SDS011;68470;50.224;14.348;2023-04-25T11:56:48;7.63;;;3.97;;
79066;SDS011;68470;50.224;14.348;2023-04-25T11:59:15;7.07;;;4.07;;
79066;SDS011;68470;50.224;14.348;2023-04-25T12:01:48;7.93;;;3.80;;
79066;SDS011;68470;50.224;14.348;2023-04-25T12:04:16;7.82;;;4.05;;
79066;SDS011;68470;50.224;14.348;2023-04-25T12:06:46;8.60;;;5.00;;
79066;SDS011;68470;50.224;14.348;2023-04-25T12:09:14;7.13;;;5.45;;
79066;SDS011;68470;50.224;14.348;2023-04-25T12:11:56;8.13;;;4.05;;
79066;SDS011;68470;50.224;14.348;2023-04-25T12:14:27;7.47;;;3.78;;
79066;SDS011;68470;50.224;14.348;2023-04-25T12:16:58;6.30;;;3.83;;
79066;SDS011;68470;50.224;14.348;2023-04-25T12:19:29;6.20;;;4.20;;
79066;SDS011;68470;50.224;14.348;2023-04-25T12:22:07;4.18;;;3.10;;
79066;SDS011;68470;50.224;14.348;2023-04-25T12:25:33;5.20;;;3.10;;
79066;SDS011;68470;50.224;14.348;2023-04-25T12:29:15;8.55;;;3.60;;
79066;SDS011;68470;50.224;14.348;2023-04-25T12:32:10;7.78;;;3.78;;
79066;SDS011;68470;50.224;14.348;2023-04-25T12:34:49;8.00;;;4.45;;
79066;SDS011;68470;50.224;14.348;2023-04-25T12:37:46;6.03;;;3.40;;
79066;SDS011;68470;50.224;14.348;2023-04-25T12:40:21;8.25;;;3.42;;
79066;SDS011;68470;50.224;14.348;2023-04-25T12:42:47;6.75;;;3.38;;
79066;SDS011;68470;50.224;14.348;2023-04-25T12:45:14;5.60;;;3.10;;
79066;SDS011;68470;50.224;14.348;2023-04-25T12:47:41;6.20;;;3.83;;
79066;SDS011;68470;50.224;14.348;2023-04-25T12:50:08;4.35;;;3.33;;
79066;SDS011;68470;50.224;14.348;2023-04-25T12:52:34;4.45;;;2.60;;
79066;SDS011;68470;50.224;14.348;2023-04-25T12:55:00;5.03;;;2.95;;
79066;SDS011;68470;50.224;14.348;2023-04-25T12:57:41;3.47;;;2.70;;
79066;SDS011;68470;50.224;14.348;2023-04-25T13:00:22;3.78;;;2.95;;
79066;SDS011;68470;50.224;14.348;2023-04-25T13:06:01;4.65;;;2.55;;
79066;SDS011;68470;50.224;14.348;2023-04-25T13:09:03;4.00;;;2.50;;
79066;SDS011;68470;50.224;14.348;2023-04-25T13:12:25;5.45;;;3.17;;
79066;SDS011;68470;50.224;14.348;2023-04-25T13:15:13;6.32;;;3.03;;
79066;SDS011;68470;50.224;14.348;2023-04-25T13:18:13;5.68;;;3.10;;
79066;SDS011;68470;50.224;14.348;2023-04-25T13:21:16;7.50;;;2.97;;
79066;SDS011;68470;50.224;14.348;2023-04-25T13:24:02;4.72;;;3.10;;
79066;SDS011;68470;50.224;14.348;2023-04-25T13:27:14;4.82;;;3.10;;
79066;SDS011;68470;50.224;14.348;2023-04-25T13:29:43;6.10;;;3.13;;
79066;SDS011;68470;50.224;14.348;2023-04-25T13:36:07;6.97;;;3.50;;
79066;SDS011;68470;50.224;14.348;2023-04-25T13:39:01;6.38;;;3.40;;
79066;SDS011;68470;50.224;14.348;2023-04-25T13:45:39;5.22;;;3.05;;
79066;SDS011;68470;50.224;14.348;2023-04-25T13:48:55;8.27;;;4.10;;
79066;SDS011;68470;50.224;14.348;2023-04-25T13:51:20;15.38;;;6.22;;
79066;SDS011;68470;50.224;14.348;2023-04-25T13:53:57;3.90;;;2.80;;
79066;SDS011;68470;50.224;14.348;2023-04-25T13:56:44;11.00;;;3.95;;
79066;SDS011;68470;50.224;14.348;2023-04-25T13:59:13;6.75;;;3.65;;
79066;SDS011;68470;50.224;14.348;2023-04-25T14:01:44;3.78;;;2.40;;
79066;SDS011;68470;50.224;14.348;2023-04-25T14:06:55;4.43;;;2.50;;
79066;SDS011;68470;50.224;14.348;2023-04-25T14:09:27;4.90;;;3.10;;
79066;SDS011;68470;50.224;14.348;2023-04-25T14:11:53;4.38;;;3.00;;
79066;SDS011;68470;50.224;14.348;2023-04-25T14:14:31;3.95;;;2.40;;
79066;SDS011;68470;50.224;14.348;2023-04-25T14:17:02;4.75;;;2.95;;
79066;SDS011;68470;50.224;14.348;2023-04-25T14:19:29;3.40;;;2.25;;
79066;SDS011;68470;50.224;14.348;2023-04-25T14:21:55;6.82;;;3.33;;
79066;SDS011;68470;50.224;14.348;2023-04-25T14:27:33;8.70;;;4.72;;
79066;SDS011;68470;50.224;14.348;2023-04-25T14:30:49;8.77;;;5.22;;
79066;SDS011;68470;50.224;14.348;2023-04-25T14:33:18;7.18;;;4.20;;
79066;SDS011;68470;50.224;14.348;2023-04-25T14:36:09;4.90;;;3.42;;
79066;SDS011;68470;50.224;14.348;2023-04-25T14:38:53;6.90;;;5.10;;
79066;SDS011;68470;50.224;14.348;2023-04-25T14:41:43;5.13;;;3.45;;
79066;SDS011;68470;50.224;14.348;2023-04-25T14:44:32;4.30;;;2.67;;
79066;SDS011;68470;50.224;14.348;2023-04-25T14:47:08;4.72;;;3.15;;
79066;SDS011;68470;50.224;14.348;2023-04-25T14:49:51;7.95;;;3.35;;
79066;SDS011;68470;50.224;14.348;2023-04-25T14:54:54;7.63;;;5.00;;
79066;SDS011;68470;50.224;14.348;2023-04-25T15:01:06;6.35;;;3.88;;
79066;SDS011;68470;50.224;14.348;2023-04-25T15:03:46;9.63;;;4.75;;
79066;SDS011;68470;50.224;14.348;2023-04-25T15:06:16;9.88;;;5.53;;
79066;SDS011;68470;50.224;14.348;2023-04-25T15:08:43;9.20;;;5.45;;
79066;SDS011;68470;50.224;14.348;2023-04-25T15:11:24;13.90;;;5.53;;
79066;SDS011;68470;50.224;14.348;2023-04-25T15:13:50;8.98;;;5.10;;
79066;SDS011;68470;50.224;14.348;2023-04-25T15:16:19;15.95;;;8.75;;
79066;SDS011;68470;50.224;14.348;2023-04-25T15:18:58;8.88;;;5.45;;